| time (UTC) | temp C | wind direction | speed KPH | gust KPH | rain 1hr cm | rain 24hr cm | rain mn cm | humidity % | barometer mb |
| 20260505063009 | 20 | 113 | 4.8 | 11.3 | 0.00 | 0.33 | 0.13 | 63 | 1017.6 |
| 20260505061509 | 21 | 120 | 6.4 | 11.3 | 0.00 | 0.33 | 0.13 | 60 | 1017.8 |
| 20260505060024 | 21 | 124 | 3.2 | 11.3 | 0.00 | 0.33 | 0.13 | 58 | 1017.6 |
| 20260505054508 | 21 | 137 | 3.2 | 11.3 | 0.00 | 0.33 | 0.13 | 55 | 1017.5 |
| 20260505053005 | 21 | 137 | 3.2 | 8.0 | 0.00 | 0.33 | 0.13 | 55 | 1017.5 |
| 20260505051512 | 21 | 110 | 9.7 | 19.3 | 0.00 | 0.33 | 0.13 | 56 | 1017.2 |
| 20260505041502 | 23 | 201 | 3.2 | 9.7 | 0.00 | 0.33 | 0.13 | 44 | 1017.3 |
| 20260505040002 | 23 | 254 | 1.6 | 6.4 | 0.00 | 0.33 | 0.13 | 45 | 1017.1 |
| 20260505034501 | 23 | 280 | 3.2 | 11.3 | 0.00 | 0.33 | 0.13 | 43 | 1017.0 |
| 20260505033059 | 23 | 199 | 4.8 | 9.7 | 0.00 | 0.33 | 0.13 | 44 | 1017.1 |
| 20260505031558 | 23 | 282 | 3.2 | 11.3 | 0.00 | 0.33 | 0.13 | 45 | 1017.2 |
| 20260505031502 | 23 | 277 | 3.2 | 11.3 | 0.00 | 0.33 | 0.13 | 45 | 1017.2 |
| 20260505030056 | 23 | 262 | 3.2 | 9.7 | 0.00 | 0.33 | 0.13 | 46 | 1017.4 |
| 20260505024601 | 22 | 255 | 4.8 | 9.7 | 0.00 | 0.33 | 0.13 | 49 | 1017.6 |
| 20260505023054 | 22 | 286 | 3.2 | 11.3 | 0.00 | 0.33 | 0.13 | 48 | 1017.8 |
| 20260505021549 | 22 | 271 | 1.6 | 9.7 | 0.00 | 0.33 | 0.13 | 50 | 1018.0 |
| 20260505020047 | 22 | 300 | 1.6 | 8.0 | 0.00 | 0.33 | 0.13 | 49 | 1018.2 |
| 20260505014616 | 21 | 315 | 1.6 | 8.0 | 0.00 | 0.33 | 0.13 | 52 | 1018.3 |
| 20260505013059 | 21 | 292 | 3.2 | 8.0 | 0.00 | 0.33 | 0.13 | 52 | 1018.4 |
| 20260505011543 | 21 | 267 | 3.2 | 11.3 | 0.00 | 0.33 | 0.13 | 51 | 1018.6 |
| 20260505010040 | 21 | 269 | 1.6 | 11.3 | 0.00 | 0.33 | 0.13 | 52 | 1018.7 |
| 20260505004538 | 21 | 290 | 3.2 | 12.9 | 0.00 | 0.33 | 0.13 | 54 | 1018.8 |
| 20260505003032 | 20 | 279 | 1.6 | 11.3 | 0.00 | 0.33 | 0.13 | 56 | 1018.9 |
| 20260505001526 | 20 | 209 | 3.2 | 11.3 | 0.00 | 0.33 | 0.13 | 55 | 1019.0 |
| 20260505000026 | 20 | 235 | 3.2 | 11.3 | 0.00 | 0.33 | 0.13 | 55 | 1019.1 |
| 20260504234519 | 19 | 210 | 1.6 | 14.5 | 0.00 | 0.33 | 0.13 | 58 | 1019.1 |
| 20260504233017 | 19 | 206 | 4.8 | 12.9 | 0.00 | 0.33 | 0.13 | 57 | 1019.2 |
| 20260504231516 | 18 | 205 | 3.2 | 16.1 | 0.00 | 0.33 | 0.13 | 59 | 1019.3 |
| 20260504230014 | 18 | 197 | 4.8 | 11.3 | 0.00 | 0.33 | 0.13 | 62 | 1019.4 |
| 20260504224641 | 17 | 202 | 1.6 | 8.0 | 0.00 | 0.33 | 0.13 | 67 | 1019.4 |
| 20260504223009 | 17 | 198 | 1.6 | 6.4 | 0.00 | 0.33 | 0.13 | 70 | 1019.3 |
| 20260504221507 | 16 | 196 | 1.6 | 8.0 | 0.00 | 0.33 | 0.13 | 73 | 1019.0 |
| 20260504220101 | 16 | 196 | 1.6 | 6.4 | 0.00 | 0.33 | 0.13 | 76 | 1018.9 |
| 20260504214614 | 16 | 196 | 1.6 | 8.0 | 0.00 | 0.33 | 0.13 | 78 | 1018.9 |
| 20260504213059 | 16 | 196 | 1.6 | 8.0 | 0.00 | 0.33 | 0.13 | 78 | 1018.6 |
| 20260504211554 | 16 | 193 | 1.6 | 14.5 | 0.00 | 0.33 | 0.13 | 79 | 1018.3 |
| 20260504210048 | 16 | 205 | 1.6 | 8.0 | 0.00 | 0.33 | 0.13 | 81 | 1017.9 |
| 20260504204545 | 15 | 215 | 3.2 | 8.0 | 0.00 | 0.33 | 0.13 | 84 | 1017.6 |
| 20260504203042 | 15 | 248 | 0.0 | 4.8 | 0.00 | 0.33 | 0.13 | 86 | 1017.6 |
| 20260504201548 | 16 | 248 | 0.0 | 11.3 | 0.00 | 0.33 | 0.13 | 89 | 1017.2 |
| 20260504200037 | 16 | 270 | 0.0 | 4.8 | 0.00 | 0.33 | 0.13 | 91 | 1017.1 |
| 20260504194533 | 16 | 273 | 0.0 | 3.2 | 0.00 | 0.33 | 0.13 | 92 | 1017.0 |
| 20260504193118 | 16 | 273 | 0.0 | 4.8 | 0.00 | 0.33 | 0.13 | 93 | 1016.7 |
| 20260504191542 | 17 | 279 | 0.0 | 4.8 | 0.00 | 0.33 | 0.13 | 94 | 1016.6 |
| 20260504190036 | 17 | 288 | 0.0 | 3.2 | 0.00 | 0.33 | 0.13 | 94 | 1016.5 |
| 20260504190006 | 17 | 288 | 0.0 | 1.6 | 0.00 | 0.33 | 0.13 | 94 | 1016.5 |
| 20260504184542 | 17 | 288 | 0.0 | 0.0 | 0.00 | 0.33 | 0.13 | 94 | 1016.5 |
| 20260504183032 | 17 | 288 | 0.0 | 0.0 | 0.00 | 0.33 | 0.13 | 94 | 1016.2 |
| 20260504181535 | 17 | 288 | 0.0 | 0.0 | 0.03 | 0.33 | 0.13 | 94 | 1016.5 |
| 20260504180030 | 17 | 288 | 0.0 | 1.6 | 0.03 | 0.33 | 0.13 | 94 | 1016.3 |
| 20260504174528 | 17 | 288 | 0.0 | 3.2 | 0.03 | 0.33 | 0.13 | 93 | 1016.3 |
| 20260504173031 | 17 | 292 | 0.0 | 0.0 | 0.03 | 0.33 | 0.13 | 93 | 1015.7 |
| 20260504171520 | 17 | 292 | 0.0 | 0.0 | 0.00 | 0.33 | 0.10 | 93 | 1016.0 |
| 20260504081558 | 21 | 294 | 0.0 | 4.8 | 0.00 | 0.00 | 0.00 | 79 | 1015.2 |